Time;durP1;ratioP1;P1;durP2;ratioP2;P2;SDS_P1;SDS_P2;PMS_P1;PMS_P2;Temp;Humidity;BMP_temperature;BMP_pressure;BME280_temperature;BME280_humidity;BME280_pressure;Samples;Min_cycle;Max_cycle;Signal;HPM_P1;HPM_P2
2020/12/27 00:00:39;;;;;;;9.63;5.57;;;2.40;99.90;;;;;;5038223;28;20037;-54
2020/12/27 00:03:04;;;;;;;9.23;4.97;;;2.40;99.90;;;;;;5040891;28;20562;-50
2020/12/27 00:05:29;;;;;;;10.93;6.43;;;2.40;99.90;;;;;;5038494;28;20043;-52
2020/12/27 00:07:55;;;;;;;12.93;6.55;;;2.40;99.90;;;;;;5044307;28;20029;-50
2020/12/27 00:10:20;;;;;;;12.00;6.03;;;2.40;99.90;;;;;;5045092;28;20036;-51
2020/12/27 00:12:46;;;;;;;14.18;6.80;;;2.40;99.90;;;;;;5042623;28;20063;-52
2020/12/27 00:15:11;;;;;;;11.48;6.03;;;2.40;99.90;;;;;;5042240;28;20430;-49
2020/12/27 00:17:37;;;;;;;10.98;5.95;;;2.40;99.90;;;;;;5045095;28;20040;-56
2020/12/27 00:20:05;;;;;;;10.43;6.25;;;2.40;99.90;;;;;;5038933;28;20029;-52
2020/12/27 00:22:30;;;;;;;12.60;6.65;;;2.40;99.90;;;;;;5044213;28;20119;-53
2020/12/27 00:24:56;;;;;;;9.88;5.80;;;2.30;99.90;;;;;;5040025;28;20108;-53
2020/12/27 00:27:21;;;;;;;11.85;6.45;;;2.40;99.90;;;;;;5039631;28;20439;-49
2020/12/27 00:29:47;;;;;;;9.18;5.63;;;2.30;99.90;;;;;;5044342;28;20028;-53
2020/12/27 00:32:12;;;;;;;9.65;5.65;;;2.30;99.90;;;;;;5040805;28;20025;-54
2020/12/27 00:34:38;;;;;;;9.73;5.68;;;2.30;99.90;;;;;;5041657;28;20142;-50
2020/12/27 00:37:04;;;;;;;10.77;6.00;;;2.30;99.90;;;;;;5045969;28;20471;-54
2020/12/27 00:39:29;;;;;;;9.00;6.47;;;2.30;99.90;;;;;;5034994;28;20150;-54
2020/12/27 00:41:59;;;;;;;8.40;5.82;;;2.20;99.90;;;;;;5042572;28;20037;-50
2020/12/27 00:44:25;;;;;;;14.63;6.30;;;2.20;99.90;;;;;;5037126;28;20029;-52
2020/12/27 00:46:50;;;;;;;9.63;6.55;;;2.20;99.90;;;;;;5039230;28;20580;-50
2020/12/27 00:49:17;;;;;;;9.10;5.57;;;2.20;99.90;;;;;;5041250;28;20029;-55
2020/12/27 00:51:43;;;;;;;10.48;6.10;;;2.20;99.90;;;;;;5042794;28;20038;-49
2020/12/27 00:54:08;;;;;;;10.55;6.50;;;2.10;99.90;;;;;;5035078;28;20029;-50
2020/12/27 00:56:34;;;;;;;14.75;8.18;;;2.00;99.90;;;;;;5034671;28;20033;-51
2020/12/27 00:58:59;;;;;;;12.48;6.57;;;1.90;99.90;;;;;;5032125;28;20029;-52
2020/12/27 01:01:25;;;;;;;11.52;6.30;;;1.90;99.90;;;;;;5041657;28;20036;-50
2020/12/27 01:03:50;;;;;;;9.57;5.55;;;1.80;99.90;;;;;;5034373;28;20052;-52
2020/12/27 01:06:25;;;;;;;11.73;6.65;;;1.80;99.90;;;;;;5036967;28;20029;-49
2020/12/27 01:08:51;;;;;;;9.02;6.38;;;1.70;99.90;;;;;;5037522;28;20054;-54
2020/12/27 01:11:17;;;;;;;9.80;5.85;;;1.60;99.90;;;;;;5033587;28;20039;-50
2020/12/27 01:13:42;;;;;;;9.88;6.70;;;1.50;99.90;;;;;;5033086;28;20108;-50
2020/12/27 01:16:12;;;;;;;11.27;6.68;;;1.50;99.90;;;;;;5030090;28;20018;-52
2020/12/27 01:18:42;;;;;;;13.77;6.93;;;1.40;99.90;;;;;;5036723;28;20970;-52
2020/12/27 01:21:08;;;;;;;9.98;6.35;;;1.40;99.90;;;;;;5037389;28;20110;-54
2020/12/27 01:23:34;;;;;;;10.70;6.95;;;1.40;99.90;;;;;;5032586;28;20034;-54
2020/12/27 01:25:59;;;;;;;10.88;5.60;;;1.40;99.90;;;;;;5035007;28;20075;-52
2020/12/27 01:28:25;;;;;;;8.38;5.38;;;1.40;99.90;;;;;;5045566;28;20127;-52
2020/12/27 01:30:50;;;;;;;14.23;7.38;;;1.30;99.90;;;;;;5033806;28;20406;-53
2020/12/27 01:33:16;;;;;;;12.13;7.25;;;1.30;99.90;;;;;;5049797;28;20024;-51
2020/12/27 01:35:45;;;;;;;9.07;6.20;;;1.30;99.90;;;;;;5042297;28;20033;-47
2020/12/27 01:38:11;;;;;;;8.77;5.47;;;1.30;99.90;;;;;;5047176;28;20039;-49
2020/12/27 01:40:37;;;;;;;10.20;5.80;;;1.30;99.90;;;;;;5042268;28;20026;-50
2020/12/27 01:43:02;;;;;;;11.10;6.63;;;1.30;99.90;;;;;;5042477;28;20421;-49
2020/12/27 01:45:28;;;;;;;6.35;4.65;;;1.30;99.90;;;;;;5038280;28;20033;-49
2020/12/27 01:47:54;;;;;;;13.30;7.40;;;1.20;99.90;;;;;;5038259;28;20044;-50
2020/12/27 01:50:20;;;;;;;13.02;6.10;;;1.30;99.90;;;;;;5037074;28;20041;-53
2020/12/27 01:52:45;;;;;;;11.27;6.80;;;1.30;99.90;;;;;;5035593;28;20339;-48
2020/12/27 01:55:12;;;;;;;8.35;5.20;;;1.30;99.90;;;;;;5036308;28;20034;-50
2020/12/27 01:58:15;;;;;;;12.27;6.93;;;1.30;99.90;;;;;;5041720;28;20112;-50
2020/12/27 02:00:41;;;;;;;12.02;6.07;;;1.40;99.90;;;;;;5046478;28;20434;-50
2020/12/27 02:03:08;;;;;;;8.15;5.25;;;1.30;99.90;;;;;;5034156;28;20030;-48
2020/12/27 02:05:33;;;;;;;13.15;7.05;;;1.30;99.90;;;;;;5042706;28;20029;-49
2020/12/27 02:08:01;;;;;;;8.15;5.82;;;1.40;99.90;;;;;;5041848;28;20040;-53
2020/12/27 02:10:28;;;;;;;10.35;5.95;;;1.50;99.90;;;;;;5046557;28;20064;-53
2020/12/27 02:12:53;;;;;;;9.82;5.45;;;1.40;99.90;;;;;;5044518;28;20136;-49
2020/12/27 02:15:19;;;;;;;9.25;5.82;;;1.40;99.90;;;;;;5044302;28;20565;-55
2020/12/27 02:17:44;;;;;;;9.75;6.55;;;1.40;99.90;;;;;;5041475;28;20048;-55
2020/12/27 02:20:10;;;;;;;7.57;4.93;;;1.40;99.90;;;;;;5038791;28;20104;-52
2020/12/27 02:22:35;;;;;;;9.55;5.47;;;1.40;99.90;;;;;;5043188;28;20062;-52
2020/12/27 02:25:01;;;;;;;9.57;5.43;;;1.30;99.90;;;;;;5040670;28;20444;-53
2020/12/27 02:27:31;;;;;;;12.68;6.15;;;1.30;99.90;;;;;;5038735;28;20036;-51
2020/12/27 02:29:57;;;;;;;9.95;5.45;;;1.30;99.90;;;;;;5042473;28;20474;-50
2020/12/27 02:32:22;;;;;;;11.82;5.47;;;1.30;99.90;;;;;;5039282;28;20036;-51
2020/12/27 02:34:48;;;;;;;11.40;6.25;;;1.30;99.90;;;;;;5036186;28;20102;-53
2020/12/27 02:37:13;;;;;;;10.65;6.10;;;1.30;99.90;;;;;;5036912;28;22067;-50
2020/12/27 02:39:39;;;;;;;11.32;6.63;;;1.30;99.90;;;;;;5037214;28;20033;-51
2020/12/27 02:42:04;;;;;;;10.05;5.43;;;1.30;99.90;;;;;;5042566;28;20401;-52
2020/12/27 02:47:04;;;;;;;8.43;5.95;;;1.20;99.90;;;;;;5037439;28;20540;-49
2020/12/27 02:49:30;;;;;;;10.35;5.28;;;1.20;99.90;;;;;;5039423;28;20026;-52
2020/12/27 02:51:55;;;;;;;10.85;5.57;;;1.10;99.90;;;;;;5038803;28;20029;-52
2020/12/27 02:54:20;;;;;;;12.73;6.30;;;1.20;99.90;;;;;;5036735;28;20146;-50
2020/12/27 02:56:46;;;;;;;9.35;4.35;;;1.20;99.90;;;;;;5037674;28;20033;-50
2020/12/27 02:59:11;;;;;;;7.07;4.78;;;1.20;99.90;;;;;;5036744;28;20475;-52
2020/12/27 03:01:37;;;;;;;11.13;5.60;;;1.20;99.90;;;;;;5047449;28;20021;-49
2020/12/27 03:04:02;;;;;;;8.00;4.80;;;1.20;99.90;;;;;;5035762;28;20025;-52
2020/12/27 03:06:28;;;;;;;7.13;4.45;;;1.20;99.90;;;;;;5047989;28;20025;-50
2020/12/27 03:08:56;;;;;;;11.98;5.20;;;1.10;99.90;;;;;;5042875;28;20062;-49
2020/12/27 03:11:26;;;;;;;6.88;4.82;;;1.10;99.90;;;;;;5037549;28;20021;-49
2020/12/27 03:13:52;;;;;;;10.85;5.88;;;1.10;99.90;;;;;;5048704;28;20383;-53
2020/12/27 03:16:18;;;;;;;8.63;5.57;;;1.10;99.90;;;;;;5054414;28;20390;-50
2020/12/27 03:18:44;;;;;;;9.82;5.57;;;1.10;99.90;;;;;;5043724;28;20029;-52
2020/12/27 03:21:09;;;;;;;6.32;4.45;;;1.20;99.90;;;;;;5039711;28;20037;-49
2020/12/27 03:23:35;;;;;;;9.25;4.68;;;1.20;99.90;;;;;;5043162;28;20056;-51
2020/12/27 03:26:00;;;;;;;7.78;4.07;;;1.10;99.90;;;;;;5041836;28;20040;-50
2020/12/27 03:28:26;;;;;;;7.35;3.85;;;1.10;99.90;;;;;;5036541;28;20038;-50
2020/12/27 03:30:51;;;;;;;10.20;4.90;;;1.00;99.90;;;;;;5042824;28;20084;-50
2020/12/27 03:33:17;;;;;;;10.95;4.93;;;1.00;99.90;;;;;;5036409;28;20029;-51
2020/12/27 03:35:42;;;;;;;10.20;4.07;;;1.10;99.90;;;;;;5043660;28;20481;-51
2020/12/27 03:38:08;;;;;;;10.43;6.00;;;1.10;99.90;;;;;;5037106;28;20033;-52
2020/12/27 03:40:33;;;;;;;6.75;4.55;;;1.10;99.90;;;;;;5036458;28;21541;-51
2020/12/27 03:42:59;;;;;;;7.75;4.50;;;1.10;99.90;;;;;;5036444;28;20076;-52
2020/12/27 03:45:25;;;;;;;9.10;4.18;;;1.10;99.90;;;;;;5040937;28;20033;-49
2020/12/27 03:47:50;;;;;;;10.18;5.70;;;1.10;99.90;;;;;;5038093;28;20032;-50
2020/12/27 03:50:16;;;;;;;10.40;5.50;;;1.10;99.90;;;;;;5040499;28;20481;-49
2020/12/27 03:52:41;;;;;;;6.32;4.93;;;1.20;99.90;;;;;;5039636;28;20046;-53
2020/12/27 03:55:07;;;;;;;6.95;4.10;;;1.20;99.90;;;;;;5036547;28;20022;-51
2020/12/27 03:57:32;;;;;;;7.28;5.07;;;1.10;99.90;;;;;;5041300;28;20029;-49
2020/12/27 03:59:58;;;;;;;7.88;4.60;;;1.10;99.90;;;;;;5041091;28;20536;-49
2020/12/27 04:02:23;;;;;;;6.57;4.45;;;1.20;99.90;;;;;;5035392;28;20024;-52
2020/12/27 04:04:49;;;;;;;6.90;4.28;;;1.10;99.90;;;;;;5032726;28;20388;-48
2020/12/27 04:07:14;;;;;;;8.55;5.07;;;1.10;99.90;;;;;;5039561;28;20114;-50
2020/12/27 04:09:40;;;;;;;11.20;4.65;;;1.10;99.90;;;;;;5042808;28;20478;-50
2020/12/27 04:12:05;;;;;;;8.07;5.15;;;1.10;99.90;;;;;;5032291;28;20061;-50
2020/12/27 04:14:31;;;;;;;7.38;4.40;;;1.10;99.90;;;;;;5031727;28;20026;-49
2020/12/27 04:16:56;;;;;;;10.52;5.18;;;1.20;99.90;;;;;;5043602;28;20021;-48
2020/12/27 04:19:22;;;;;;;11.80;5.40;;;1.20;99.90;;;;;;5035491;28;20056;-50
2020/12/27 04:21:48;;;;;;;8.00;4.40;;;1.20;99.90;;;;;;5034981;28;20025;-48
2020/12/27 04:24:14;;;;;;;10.50;5.38;;;1.20;99.90;;;;;;5036014;28;20152;-50
2020/12/27 04:26:40;;;;;;;10.38;4.95;;;1.20;99.90;;;;;;5032088;28;20025;-52
2020/12/27 04:29:06;;;;;;;9.20;4.93;;;1.30;99.90;;;;;;5040884;28;20021;-48
2020/12/27 04:31:32;;;;;;;8.43;4.38;;;1.30;99.90;;;;;;5047190;28;20027;-50
2020/12/27 04:33:57;;;;;;;13.23;5.80;;;1.30;99.90;;;;;;5037808;28;20029;-50
2020/12/27 04:36:24;;;;;;;10.02;5.97;;;1.20;99.90;;;;;;5044594;28;20025;-50
2020/12/27 04:38:50;;;;;;;8.95;5.03;;;1.30;99.90;;;;;;5035134;28;20037;-50
2020/12/27 04:41:17;;;;;;;11.45;5.35;;;1.30;99.90;;;;;;5035830;28;20466;-48
2020/12/27 04:43:48;;;;;;;6.95;4.53;;;1.30;99.90;;;;;;5036654;28;20104;-53
2020/12/27 04:46:15;;;;;;;11.90;5.88;;;1.30;99.90;;;;;;5050075;28;20119;-48
2020/12/27 04:48:43;;;;;;;8.63;5.63;;;1.30;99.90;;;;;;5032560;28;20467;-51
2020/12/27 04:51:10;;;;;;;12.10;6.85;;;1.30;99.90;;;;;;5035402;28;20033;-53
2020/12/27 04:53:37;;;;;;;10.90;6.65;;;1.20;99.90;;;;;;5038787;28;20025;-50
2020/12/27 04:56:03;;;;;;;11.52;5.57;;;1.20;99.90;;;;;;5032232;28;20030;-47
2020/12/27 04:58:30;;;;;;;10.70;5.15;;;1.20;99.90;;;;;;5032684;28;20113;-51
2020/12/27 05:00:56;;;;;;;11.50;5.32;;;1.20;99.90;;;;;;5034864;28;20036;-51
2020/12/27 05:03:22;;;;;;;11.13;6.95;;;1.20;99.90;;;;;;5036883;28;20484;-47
2020/12/27 05:05:49;;;;;;;8.70;6.07;;;1.20;99.90;;;;;;5032720;28;20104;-49
2020/12/27 05:08:14;;;;;;;9.65;5.25;;;1.20;99.90;;;;;;5040882;28;20057;-51
2020/12/27 05:10:41;;;;;;;7.65;4.75;;;1.10;99.90;;;;;;5039909;28;20021;-49
2020/12/27 05:13:08;;;;;;;11.55;6.03;;;1.10;99.90;;;;;;5041709;28;20037;-51
2020/12/27 05:15:38;;;;;;;9.95;5.93;;;1.00;99.90;;;;;;5042439;28;20021;-52
2020/12/27 05:18:07;;;;;;;11.48;5.82;;;1.00;99.90;;;;;;5039640;28;20101;-48
2020/12/27 05:20:34;;;;;;;7.20;4.45;;;1.10;99.90;;;;;;5037559;28;20547;-49
2020/12/27 05:23:01;;;;;;;7.35;4.80;;;1.10;99.90;;;;;;5038407;28;20017;-48
2020/12/27 05:25:29;;;;;;;8.70;4.40;;;1.00;99.90;;;;;;5033027;28;20025;-52
2020/12/27 05:27:55;;;;;;;8.10;4.85;;;0.90;99.90;;;;;;5042055;28;20037;-50
2020/12/27 05:30:25;;;;;;;13.98;6.57;;;0.90;99.90;;;;;;5033421;28;20040;-50
2020/12/27 05:32:51;;;;;;;12.48;6.82;;;0.90;99.90;;;;;;5036471;28;20095;-46
2020/12/27 05:35:16;;;;;;;14.55;7.32;;;1.00;99.90;;;;;;5030744;28;20104;-51
2020/12/27 05:37:42;;;;;;;12.85;6.25;;;1.00;99.90;;;;;;5038436;28;20064;-49
2020/12/27 05:40:08;;;;;;;11.23;5.00;;;1.10;99.90;;;;;;5041456;28;20051;-49
2020/12/27 05:42:35;;;;;;;8.93;4.75;;;1.10;99.90;;;;;;5038616;28;20040;-51
2020/12/27 05:45:22;;;;;;;12.65;6.32;;;1.00;99.90;;;;;;5038499;28;20025;-50
2020/12/27 05:47:48;;;;;;;11.68;5.72;;;1.00;99.90;;;;;;5037828;28;20044;-53
2020/12/27 05:50:16;;;;;;;11.07;5.82;;;1.00;99.90;;;;;;5040090;28;20037;-53
2020/12/27 05:52:50;;;;;;;11.07;5.85;;;0.90;99.90;;;;;;5040017;28;20057;-50
2020/12/27 05:55:19;;;;;;;12.88;5.95;;;0.90;99.90;;;;;;5049424;28;20390;-50
2020/12/27 05:57:53;;;;;;;12.00;6.35;;;0.90;99.90;;;;;;5042325;28;20033;-51
2020/12/27 06:00:23;;;;;;;12.63;6.07;;;0.90;99.90;;;;;;5040995;28;20047;-51
2020/12/27 06:03:05;;;;;;;10.88;5.55;;;0.90;99.90;;;;;;5046438;28;20029;-48
2020/12/27 06:06:02;;;;;;;8.77;5.40;;;0.80;99.90;;;;;;5045198;28;20033;-47
2020/12/27 06:08:27;;;;;;;8.63;4.68;;;0.80;99.90;;;;;;5041644;28;20071;-49
2020/12/27 06:10:56;;;;;;;11.27;5.43;;;0.80;99.90;;;;;;5043824;28;20486;-50
2020/12/27 06:13:58;;;;;;;14.23;5.35;;;0.80;99.90;;;;;;5041062;28;20385;-50
2020/12/27 06:16:45;;;;;;;9.55;4.18;;;0.80;99.90;;;;;;5034883;28;20033;-49
2020/12/27 06:19:26;;;;;;;8.80;4.90;;;0.80;99.90;;;;;;5045546;28;20541;-47
2020/12/27 06:22:10;;;;;;;10.30;5.25;;;0.70;99.90;;;;;;5039164;28;20029;-46
2020/12/27 06:24:37;;;;;;;11.10;5.40;;;0.70;99.90;;;;;;5037545;28;20112;-50
2020/12/27 06:27:05;;;;;;;8.70;4.68;;;0.70;99.90;;;;;;5037769;28;20057;-50
2020/12/27 06:29:36;;;;;;;10.73;4.45;;;0.70;99.90;;;;;;5044154;28;20033;-48
2020/12/27 06:32:04;;;;;;;9.68;4.85;;;0.70;99.90;;;;;;5043815;28;20055;-47
2020/12/27 06:34:30;;;;;;;8.30;4.22;;;0.60;99.90;;;;;;5034035;28;20125;-48
2020/12/27 06:37:00;;;;;;;9.68;3.85;;;0.60;99.90;;;;;;5035196;28;20037;-47
2020/12/27 06:39:30;;;;;;;7.47;4.25;;;0.60;99.90;;;;;;5043805;28;20029;-49
2020/12/27 06:42:10;;;;;;;7.38;3.85;;;0.60;99.90;;;;;;5039636;28;20451;-47
2020/12/27 06:44:46;;;;;;;8.07;3.90;;;0.60;99.90;;;;;;5040699;28;20056;-48
2020/12/27 06:47:13;;;;;;;4.22;2.33;;;0.60;99.90;;;;;;5041133;28;20458;-48
2020/12/27 06:49:39;;;;;;;8.73;4.55;;;0.60;99.90;;;;;;5038678;28;20101;-46
2020/12/27 06:52:24;;;;;;;11.07;4.68;;;0.60;99.90;;;;;;5036079;28;20133;-48
2020/12/27 06:54:54;;;;;;;7.82;4.28;;;0.70;99.30;;;;;;5038644;28;20505;-51
2020/12/27 06:57:55;;;;;;;6.43;4.03;;;0.70;98.90;;;;;;5037939;28;20025;-46
2020/12/27 07:00:30;;;;;;;9.80;5.03;;;0.70;98.60;;;;;;4986642;28;20073;-48
2020/12/27 07:03:11;;;;;;;7.90;4.60;;;0.70;98.00;;;;;;5028774;28;20041;-50
2020/12/27 07:05:38;;;;;;;7.05;4.32;;;0.70;97.40;;;;;;5043232;28;20025;-50
2020/12/27 07:08:05;;;;;;;10.27;5.32;;;0.70;97.90;;;;;;5035773;28;20083;-49
2020/12/27 07:10:51;;;;;;;12.73;4.72;;;0.70;96.90;;;;;;5038763;28;20115;-49
2020/12/27 07:13:17;;;;;;;8.15;4.22;;;0.70;96.40;;;;;;5036330;28;20033;-48
2020/12/27 07:15:46;;;;;;;9.60;4.00;;;0.70;96.40;;;;;;5038359;28;20029;-50
2020/12/27 07:18:11;;;;;;;9.10;5.07;;;0.80;95.80;;;;;;5038336;28;20562;-49
2020/12/27 07:20:43;;;;;;;6.22;3.75;;;0.80;95.70;;;;;;5043400;28;20402;-48
2020/12/27 07:23:16;;;;;;;6.68;3.35;;;0.80;94.90;;;;;;5035286;28;20031;-48
2020/12/27 07:25:42;;;;;;;10.13;3.90;;;0.80;94.90;;;;;;5067279;28;20017;-50
2020/12/27 07:28:10;;;;;;;8.15;4.13;;;0.80;94.30;;;;;;5046290;28;20459;-49
2020/12/27 07:30:36;;;;;;;9.25;3.53;;;0.80;93.60;;;;;;5044870;28;20532;-50
2020/12/27 07:33:09;;;;;;;6.18;3.40;;;0.90;93.10;;;;;;5041562;28;20036;-48
2020/12/27 07:35:35;;;;;;;9.50;3.70;;;0.90;92.60;;;;;;5041662;28;20013;-48
2020/12/27 07:38:01;;;;;;;8.55;3.42;;;0.90;91.70;;;;;;5039664;28;20030;-49
2020/12/27 07:40:35;;;;;;;7.57;3.83;;;1.00;91.40;;;;;;5039789;28;20075;-48
2020/12/27 07:43:06;;;;;;;5.15;3.42;;;1.00;90.70;;;;;;5034042;28;20111;-48
2020/12/27 07:45:32;;;;;;;6.63;3.63;;;1.10;90.50;;;;;;5035296;28;20021;-48
2020/12/27 07:47:57;;;;;;;6.18;3.55;;;1.10;90.40;;;;;;5041474;28;20524;-46
2020/12/27 07:50:23;;;;;;;7.15;3.22;;;1.10;90.00;;;;;;5041819;28;20056;-47
2020/12/27 07:52:55;;;;;;;10.35;3.25;;;1.20;88.70;;;;;;5048386;28;20071;-49
2020/12/27 07:55:36;;;;;;;7.82;2.95;;;1.20;88.70;;;;;;5047918;28;20501;-49
2020/12/27 07:58:04;;;;;;;5.43;3.17;;;1.20;88.80;;;;;;5037767;28;20029;-51
2020/12/27 08:00:32;;;;;;;4.45;2.83;;;1.20;88.70;;;;;;5041839;28;20125;-47
2020/12/27 08:03:02;;;;;;;8.95;3.08;;;1.20;89.50;;;;;;5034559;28;20121;-48
2020/12/27 08:05:27;;;;;;;6.47;3.05;;;1.20;88.20;;;;;;5042055;28;20424;-49
2020/12/27 08:08:01;;;;;;;5.78;2.88;;;1.30;85.90;;;;;;5039408;28;20034;-50
2020/12/27 08:10:27;;;;;;;6.30;2.80;;;1.30;85.70;;;;;;5035600;28;20470;-49
2020/12/27 08:12:55;;;;;;;4.20;2.72;;;1.40;86.10;;;;;;5040759;28;20021;-50
2020/12/27 08:15:22;;;;;;;6.10;2.75;;;1.50;83.50;;;;;;5040311;28;20021;-48
2020/12/27 08:18:00;;;;;;;3.97;2.35;;;1.40;83.60;;;;;;5038771;28;20033;-46
2020/12/27 08:20:27;;;;;;;7.13;3.00;;;1.40;83.70;;;;;;5038564;28;20104;-52
2020/12/27 08:23:00;;;;;;;4.72;2.60;;;1.50;83.10;;;;;;5038603;28;20029;-48
2020/12/27 08:25:27;;;;;;;4.38;2.70;;;1.50;83.40;;;;;;5034850;28;20102;-49
2020/12/27 08:27:56;;;;;;;7.35;2.60;;;1.60;82.00;;;;;;5034558;28;20021;-48
2020/12/27 08:30:23;;;;;;;5.93;2.80;;;1.60;82.00;;;;;;5041725;28;20025;-46
2020/12/27 08:33:00;;;;;;;8.10;3.03;;;1.60;81.70;;;;;;5042155;28;20152;-54
2020/12/27 08:35:26;;;;;;;4.53;3.05;;;1.70;80.30;;;;;;5035156;28;21806;-46
2020/12/27 08:38:09;;;;;;;4.53;2.40;;;1.70;79.60;;;;;;5036406;28;20029;-50
2020/12/27 08:40:39;;;;;;;5.78;2.70;;;1.70;80.20;;;;;;5042060;28;20029;-55
2020/12/27 08:43:16;;;;;;;4.40;3.08;;;1.70;80.50;;;;;;5037907;28;20026;-47
2020/12/27 08:45:49;;;;;;;5.00;2.92;;;1.80;80.00;;;;;;5033844;28;20033;-47
2020/12/27 08:48:29;;;;;;;4.57;2.78;;;1.80;79.80;;;;;;5030930;28;20116;-45
2020/12/27 08:50:57;;;;;;;8.05;2.92;;;1.80;79.40;;;;;;5034346;28;20037;-46
2020/12/27 08:53:23;;;;;;;3.88;2.00;;;1.90;78.70;;;;;;5034437;28;20532;-47
2020/12/27 08:55:49;;;;;;;4.70;2.70;;;1.90;78.00;;;;;;5041114;28;20040;-49
2020/12/27 08:58:14;;;;;;;7.55;3.20;;;1.90;78.40;;;;;;5034264;28;20306;-50
2020/12/27 09:00:40;;;;;;;9.40;2.75;;;1.90;78.40;;;;;;5045871;28;20029;-51
2020/12/27 09:03:07;;;;;;;13.50;4.43;;;2.00;78.60;;;;;;5034446;28;20048;-50
2020/12/27 09:05:34;;;;;;;6.47;2.85;;;2.00;78.50;;;;;;5043977;28;20029;-49
2020/12/27 09:08:00;;;;;;;6.07;2.40;;;2.10;78.10;;;;;;5046468;28;20037;-49
2020/12/27 09:10:28;;;;;;;7.70;3.03;;;2.10;77.80;;;;;;5040064;28;20025;-48
2020/12/27 09:13:04;;;;;;;3.58;2.17;;;2.10;77.50;;;;;;5041204;28;20378;-50
2020/12/27 09:15:37;;;;;;;7.88;2.83;;;2.00;78.40;;;;;;5035435;28;20076;-52
2020/12/27 09:18:09;;;;;;;4.72;2.90;;;2.00;77.80;;;;;;5036580;28;20032;-52
2020/12/27 09:20:37;;;;;;;5.07;3.63;;;2.00;77.90;;;;;;5034181;28;20080;-50
2020/12/27 09:23:20;;;;;;;10.45;3.50;;;2.00;79.00;;;;;;5032771;28;20458;-50
2020/12/27 09:25:47;;;;;;;3.88;2.90;;;1.90;78.50;;;;;;5042136;28;20080;-47
2020/12/27 09:28:21;;;;;;;7.55;4.13;;;1.90;79.00;;;;;;5033732;28;20110;-51
2020/12/27 09:31:11;;;;;;;5.80;3.20;;;2.00;78.90;;;;;;5037932;28;20061;-50
2020/12/27 09:33:47;;;;;;;4.60;2.80;;;2.20;78.60;;;;;;5038482;28;20033;-51
2020/12/27 09:36:13;;;;;;;5.97;2.40;;;2.30;77.80;;;;;;5039455;28;20186;-48
2020/12/27 09:38:44;;;;;;;5.25;3.03;;;2.30;77.00;;;;;;5037272;28;20381;-49
2020/12/27 09:41:11;;;;;;;5.60;2.90;;;2.30;76.60;;;;;;5035152;28;20065;-51
2020/12/27 09:44:12;;;;;;;4.50;2.88;;;2.30;76.60;;;;;;5044054;28;20119;-49
2020/12/27 09:46:42;;;;;;;4.45;2.72;;;2.30;76.50;;;;;;4964324;28;20051;-48
2020/12/27 09:49:18;;;;;;;4.50;2.88;;;2.20;76.30;;;;;;5026501;28;20082;-49
2020/12/27 09:51:43;;;;;;;6.63;3.38;;;2.20;75.70;;;;;;5033492;28;20546;-47
2020/12/27 09:54:09;;;;;;;9.63;3.40;;;2.20;75.70;;;;;;5030106;28;20121;-48
2020/12/27 09:56:44;;;;;;;4.35;2.70;;;2.20;76.70;;;;;;5038165;28;20379;-52
2020/12/27 09:59:10;;;;;;;5.40;3.72;;;2.10;76.60;;;;;;5037474;28;20032;-50
2020/12/27 10:01:36;;;;;;;5.30;2.88;;;2.20;76.30;;;;;;5041517;28;20017;-48
2020/12/27 10:04:02;;;;;;;4.28;2.92;;;2.20;76.30;;;;;;5031497;28;20022;-53
2020/12/27 10:06:27;;;;;;;6.78;2.90;;;2.20;76.00;;;;;;5035756;28;20074;-48
2020/12/27 10:08:53;;;;;;;6.20;2.85;;;2.20;75.40;;;;;;5065526;28;20037;-48
2020/12/27 10:11:18;;;;;;;4.30;2.80;;;2.20;75.20;;;;;;5035318;28;20041;-49
2020/12/27 10:13:44;;;;;;;5.60;3.00;;;2.20;75.70;;;;;;5039945;28;20108;-47
2020/12/27 10:16:09;;;;;;;3.67;2.58;;;2.20;75.20;;;;;;5038583;28;20032;-51
2020/12/27 10:18:35;;;;;;;4.47;2.80;;;2.20;75.70;;;;;;5029626;28;20390;-51
2020/12/27 10:21:00;;;;;;;5.07;2.90;;;2.10;76.10;;;;;;5031828;28;20100;-49
2020/12/27 10:23:26;;;;;;;4.63;2.50;;;2.10;75.50;;;;;;5042168;28;20370;-53
2020/12/27 10:25:51;;;;;;;5.18;2.80;;;2.10;75.00;;;;;;5051901;28;20029;-50
2020/12/27 10:28:17;;;;;;;6.93;2.50;;;2.20;75.00;;;;;;5038046;28;20037;-49
2020/12/27 10:30:42;;;;;;;4.13;2.58;;;2.20;75.50;;;;;;5051891;28;20028;-52
2020/12/27 10:33:10;;;;;;;5.90;2.22;;;2.20;74.50;;;;;;5042597;28;20031;-49
2020/12/27 10:35:35;;;;;;;6.45;2.85;;;2.30;74.80;;;;;;5043142;28;20068;-52
2020/12/27 10:38:00;;;;;;;5.93;2.85;;;2.30;73.70;;;;;;5041802;28;20457;-52
2020/12/27 10:40:26;;;;;;;3.78;2.40;;;2.30;73.70;;;;;;5043593;28;20044;-48
2020/12/27 10:42:51;;;;;;;3.85;2.30;;;2.40;74.10;;;;;;5037564;28;20427;-49
2020/12/27 10:45:17;;;;;;;2.92;2.17;;;2.40;75.00;;;;;;5039364;28;20044;-54
2020/12/27 10:47:42;;;;;;;8.52;2.20;;;2.40;74.10;;;;;;5037772;28;20049;-49
2020/12/27 10:50:08;;;;;;;5.50;2.55;;;2.50;74.30;;;;;;5034328;28;20125;-50
2020/12/27 10:52:33;;;;;;;5.57;2.85;;;2.50;74.10;;;;;;5042389;28;20018;-48
2020/12/27 10:54:59;;;;;;;5.32;2.10;;;2.50;72.90;;;;;;5040654;28;20022;-51
2020/12/27 10:57:24;;;;;;;5.95;2.53;;;2.60;72.50;;;;;;5038027;28;20030;-50
2020/12/27 10:59:50;;;;;;;3.72;2.15;;;2.60;72.00;;;;;;5042189;28;20067;-53
2020/12/27 11:02:15;;;;;;;3.33;2.05;;;2.60;71.50;;;;;;5037374;28;20045;-51
2020/12/27 11:04:40;;;;;;;8.05;2.50;;;2.60;70.60;;;;;;5038663;28;20044;-50
2020/12/27 11:07:07;;;;;;;3.88;2.30;;;2.60;71.30;;;;;;5036496;28;20413;-49
2020/12/27 11:09:32;;;;;;;4.97;2.08;;;2.60;71.60;;;;;;5041982;28;20033;-47
2020/12/27 11:11:58;;;;;;;5.18;2.08;;;2.60;70.90;;;;;;5039361;28;20029;-49
2020/12/27 11:14:23;;;;;;;4.45;2.03;;;2.70;70.70;;;;;;5036295;28;20064;-52
2020/12/27 11:16:49;;;;;;;2.60;1.88;;;2.70;70.40;;;;;;5041611;28;20030;-53
2020/12/27 11:19:14;;;;;;;2.63;1.70;;;2.60;70.60;;;;;;5041346;28;20429;-48
2020/12/27 11:21:47;;;;;;;5.28;2.20;;;2.70;69.40;;;;;;5038299;28;20044;-51
2020/12/27 11:24:14;;;;;;;5.82;1.60;;;2.70;69.50;;;;;;5035637;28;20430;-48
2020/12/27 11:26:39;;;;;;;4.97;2.00;;;2.70;69.90;;;;;;5038673;28;20029;-47
2020/12/27 11:29:04;;;;;;;3.50;1.60;;;2.70;70.10;;;;;;5043729;28;20037;-48
2020/12/27 11:31:30;;;;;;;4.95;2.20;;;2.80;69.10;;;;;;5037330;28;20032;-49
2020/12/27 11:33:55;;;;;;;3.28;1.60;;;2.80;68.40;;;;;;5036496;28;20494;-50
2020/12/27 11:36:21;;;;;;;3.55;1.85;;;2.80;69.20;;;;;;5034402;28;20029;-47
2020/12/27 11:38:46;;;;;;;4.85;2.20;;;2.80;68.70;;;;;;5035113;28;20033;-51
2020/12/27 11:41:13;;;;;;;2.92;1.85;;;2.80;68.30;;;;;;5036309;28;20424;-47
2020/12/27 11:43:39;;;;;;;5.82;1.52;;;2.90;67.60;;;;;;5032014;28;20071;-49
2020/12/27 11:46:05;;;;;;;2.55;1.77;;;2.90;68.50;;;;;;5036971;28;20289;-48
2020/12/27 11:48:30;;;;;;;3.25;1.83;;;2.80;67.90;;;;;;5038153;28;20047;-54
2020/12/27 11:50:55;;;;;;;5.80;1.48;;;2.90;67.70;;;;;;5036267;28;20069;-52
2020/12/27 11:53:21;;;;;;;3.80;2.03;;;2.90;68.80;;;;;;5035882;28;20033;-49
2020/12/27 11:55:47;;;;;;;3.15;1.73;;;2.80;68.20;;;;;;5041322;28;20442;-51
2020/12/27 11:58:12;;;;;;;3.40;1.92;;;2.80;67.90;;;;;;5044815;28;20104;-49
2020/12/27 12:00:38;;;;;;;6.10;1.50;;;2.90;67.40;;;;;;5038075;28;20049;-49
2020/12/27 12:03:04;;;;;;;4.20;1.73;;;2.80;67.80;;;;;;5036916;28;20037;-54
2020/12/27 12:05:29;;;;;;;4.50;1.63;;;2.80;67.80;;;;;;5040960;28;20506;-51
2020/12/27 12:07:55;;;;;;;2.75;1.30;;;2.80;68.60;;;;;;5042598;28;20040;-51
2020/12/27 12:10:20;;;;;;;3.83;1.73;;;2.80;67.70;;;;;;5040519;28;20033;-45
2020/12/27 12:12:46;;;;;;;4.22;1.70;;;2.80;67.60;;;;;;5040666;28;20396;-52
2020/12/27 12:15:11;;;;;;;3.72;1.50;;;2.80;67.80;;;;;;5035450;28;20029;-49
2020/12/27 12:17:37;;;;;;;3.38;1.67;;;2.80;68.40;;;;;;5042185;28;20067;-50
2020/12/27 12:20:02;;;;;;;4.47;1.70;;;2.80;68.40;;;;;;5042614;28;20025;-50
2020/12/27 12:22:28;;;;;;;2.45;1.40;;;2.80;68.30;;;;;;5041797;28;20095;-49
2020/12/27 12:24:53;;;;;;;2.33;1.45;;;2.80;68.50;;;;;;5041013;28;20036;-52
2020/12/27 12:27:19;;;;;;;2.90;1.77;;;2.80;67.30;;;;;;5039826;28;20056;-49
2020/12/27 12:29:44;;;;;;;3.38;1.70;;;2.80;66.50;;;;;;5042171;28;20450;-49
2020/12/27 12:32:13;;;;;;;3.55;1.70;;;2.80;66.00;;;;;;5042336;28;20402;-50
2020/12/27 12:34:38;;;;;;;5.88;2.10;;;2.80;65.90;;;;;;5041651;28;20029;-49
2020/12/27 12:37:04;;;;;;;3.28;1.48;;;2.80;65.60;;;;;;5038764;28;20037;-48
2020/12/27 12:39:29;;;;;;;4.28;1.90;;;2.80;66.20;;;;;;5038497;28;20029;-48
2020/12/27 12:41:57;;;;;;;3.63;1.70;;;2.70;66.90;;;;;;5033364;28;20034;-49
2020/12/27 12:44:22;;;;;;;2.10;1.27;;;2.80;67.10;;;;;;5029834;28;20025;-49
2020/12/27 12:46:48;;;;;;;5.20;1.70;;;2.70;66.60;;;;;;5033825;28;20033;-47
2020/12/27 12:49:13;;;;;;;1.98;1.45;;;2.70;66.50;;;;;;5038526;28;20033;-50
2020/12/27 12:51:38;;;;;;;3.25;1.67;;;2.70;66.30;;;;;;5034013;28;20081;-50
2020/12/27 12:54:04;;;;;;;2.78;1.85;;;2.70;66.20;;;;;;5033071;28;20025;-49
2020/12/27 12:56:29;;;;;;;3.65;1.95;;;2.70;66.60;;;;;;5038144;28;20090;-48
2020/12/27 12:58:55;;;;;;;3.38;1.70;;;2.70;66.40;;;;;;5037667;28;20418;-52